Terminal Aerodrome Forecast
Issued by NWS

Home | Current Version | Previous Version | Text Only | Print | Product List | Glossary On
Versions: 1 2 3 4 5 6 7 8 9 10 11 12 13 14 15 16 17 18 19
000
FTUS43 KAPX 270132 AAA
TAFAPN
TAF AMD
KAPN 270132Z 2702/2724 VRB03KT 5SM -SHSN SCT025 OVC035
     FM270600 04004KT 2SM -SHSN BR OVC027
     FM271800 34007G15KT P6SM -SHSN OVC030=

USA.gov is the U.S. government's official web portal to all federal, state and local government web resources and services.